createdAt,value
2017-04-14T00:00:43.930Z,0
2017-04-14T00:01:52.887Z,0
2017-04-14T00:03:02.139Z,0
2017-04-14T00:04:11.093Z,0
2017-04-14T00:05:20.367Z,0
2017-04-14T00:06:29.408Z,0
2017-04-14T00:07:38.360Z,0
2017-04-14T00:08:47.572Z,0
2017-04-14T00:09:56.535Z,0
2017-04-14T00:11:05.580Z,0
2017-04-14T00:12:14.541Z,0
2017-04-14T00:13:23.494Z,0
2017-04-14T00:14:32.695Z,0
2017-04-14T00:15:41.653Z,0
2017-04-14T00:16:50.608Z,0
2017-04-14T00:17:59.565Z,0
2017-04-14T00:19:08.525Z,0
2017-04-14T00:20:17.723Z,0
2017-04-14T00:21:26.683Z,0
2017-04-14T00:22:35.640Z,0
2017-04-14T00:23:44.605Z,0
2017-04-14T00:24:53.566Z,0
2017-04-14T00:26:02.853Z,0
2017-04-14T00:27:11.803Z,0
2017-04-14T00:28:20.752Z,0
2017-04-14T00:29:29.710Z,0
2017-04-14T00:30:38.663Z,0
2017-04-14T00:31:47.864Z,0
2017-04-14T00:32:57.143Z,0
2017-04-14T00:34:06.106Z,0
2017-04-14T00:35:15.143Z,0
2017-04-14T00:36:24.093Z,0
2017-04-14T00:37:33.309Z,0
2017-04-14T00:38:42.268Z,0
2017-04-14T00:39:51.216Z,0
2017-04-14T00:41:00.212Z,0
2017-04-14T00:42:09.166Z,0
2017-04-14T00:43:18.419Z,0
2017-04-14T00:44:27.381Z,0
2017-04-14T00:45:36.332Z,0
2017-04-14T00:46:45.286Z,0
2017-04-14T00:47:54.344Z,0
2017-04-14T00:49:03.554Z,0
2017-04-14T00:50:12.507Z,0
2017-04-14T00:51:21.461Z,0
2017-04-14T00:52:30.430Z,0
2017-04-14T00:53:39.387Z,0
2017-04-14T00:54:48.644Z,0
2017-04-14T00:55:57.596Z,0
2017-04-14T00:57:06.549Z,0
2017-04-14T00:58:15.502Z,0
2017-04-14T00:59:24.451Z,0
2017-04-14T01:00:33.736Z,0
2017-04-14T01:01:42.688Z,0
2017-04-14T01:02:51.645Z,0
2017-04-14T01:04:00.921Z,0
2017-04-14T01:05:09.869Z,0
2017-04-14T01:06:19.123Z,0
2017-04-14T01:07:28.080Z,0
2017-04-14T01:08:37.047Z,0
2017-04-14T01:09:46.323Z,0
2017-04-14T01:10:55.272Z,0
2017-04-14T01:12:04.469Z,0
2017-04-14T01:13:13.417Z,0
2017-04-14T01:14:22.378Z,0
2017-04-14T01:15:31.339Z,0
2017-04-14T01:16:40.289Z,0
2017-04-14T01:17:49.497Z,0
2017-04-14T01:18:58.457Z,0
2017-04-14T01:20:07.406Z,0
2017-04-14T01:21:16.369Z,0
2017-04-14T01:22:25.658Z,0
2017-04-14T01:23:34.857Z,0
2017-04-14T01:24:43.809Z,0
2017-04-14T01:25:52.760Z,0
2017-04-14T01:27:01.721Z,0
2017-04-14T01:28:10.679Z,0
2017-04-14T01:29:20.204Z,0
2017-04-14T01:30:29.164Z,0
2017-04-14T01:31:38.111Z,0
2017-04-14T01:32:47.062Z,0
2017-04-14T01:33:56.024Z,0
2017-04-14T01:35:05.611Z,0
2017-04-14T01:36:14.645Z,0
2017-04-14T01:37:23.608Z,0
2017-04-14T01:38:32.560Z,0
2017-04-14T01:39:41.832Z,0
2017-04-14T01:40:51.036Z,0
2017-04-14T01:41:59.987Z,0
2017-04-14T01:43:08.943Z,0
2017-04-14T01:44:17.902Z,0
2017-04-14T01:45:26.853Z,0
2017-04-14T01:46:36.112Z,0
2017-04-14T01:47:45.386Z,0
2017-04-14T01:48:54.345Z,0
2017-04-14T01:50:03.305Z,0
2017-04-14T01:51:12.259Z,0
2017-04-14T01:52:21.517Z,0
2017-04-14T01:53:30.479Z,0
2017-04-14T01:54:39.445Z,0
2017-04-14T01:55:48.399Z,0
2017-04-14T01:56:57.353Z,0
2017-04-14T01:58:06.560Z,0
2017-04-14T01:59:15.512Z,0
2017-04-14T02:00:24.474Z,0
2017-04-14T02:01:33.428Z,0
2017-04-14T02:02:42.388Z,0
2017-04-14T02:03:51.595Z,0
2017-04-14T02:05:00.547Z,0
2017-04-14T02:06:09.499Z,0
2017-04-14T02:07:18.773Z,0
2017-04-14T02:08:27.725Z,0
2017-04-14T02:09:37.023Z,0
2017-04-14T02:10:45.979Z,0
2017-04-14T02:11:55.257Z,0
2017-04-14T02:13:04.209Z,0
2017-04-14T02:14:13.166Z,0
2017-04-14T02:15:22.378Z,0
2017-04-14T02:16:31.342Z,0
2017-04-14T02:17:40.719Z,0
2017-04-14T02:18:49.765Z,0
2017-04-14T02:19:58.721Z,0
2017-04-14T02:21:07.971Z,0
2017-04-14T02:22:16.929Z,0
2017-04-14T02:23:25.883Z,0
2017-04-14T02:24:34.838Z,0
2017-04-14T02:25:43.793Z,0
2017-04-14T02:26:52.997Z,0
2017-04-14T02:28:01.947Z,0
2017-04-14T02:29:10.894Z,0
2017-04-14T02:30:19.848Z,0
2017-04-14T02:31:28.800Z,0
2017-04-14T02:32:38.001Z,0
2017-04-14T02:33:46.949Z,0
2017-04-14T02:34:55.904Z,0
2017-04-14T02:36:04.854Z,0
2017-04-14T02:37:13.801Z,0
2017-04-14T02:38:23.000Z,0
2017-04-14T02:39:31.961Z,0
2017-04-14T02:40:40.918Z,0
2017-04-14T02:41:49.876Z,0
2017-04-14T02:42:58.909Z,0
2017-04-14T02:44:08.116Z,0
2017-04-14T02:45:17.069Z,0
2017-04-14T02:46:26.020Z,0
2017-04-14T02:47:34.970Z,0
2017-04-14T02:48:43.926Z,0
2017-04-14T02:49:53.126Z,0
2017-04-14T02:51:02.092Z,0
2017-04-14T02:52:11.035Z,0
2017-04-14T02:53:19.987Z,0
2017-04-14T02:54:29.033Z,0
2017-04-14T02:55:38.281Z,0
2017-04-14T02:56:47.239Z,0
2017-04-14T02:57:56.199Z,0
2017-04-14T02:59:05.244Z,0
2017-04-14T03:00:14.200Z,0
2017-04-14T03:01:23.449Z,0
2017-04-14T03:02:32.401Z,0
2017-04-14T03:03:41.404Z,0
2017-04-14T03:04:50.356Z,0
2017-04-14T03:05:59.310Z,0
2017-04-14T03:07:08.512Z,0
2017-04-14T03:08:17.459Z,0
2017-04-14T03:09:26.411Z,0
2017-04-14T03:10:35.361Z,0
2017-04-14T03:11:44.319Z,0
2017-04-14T03:12:53.524Z,0
2017-04-14T03:14:02.478Z,0
2017-04-14T03:15:11.525Z,0
2017-04-14T03:16:20.482Z,0
2017-04-14T03:17:29.428Z,0
2017-04-14T03:18:38.682Z,0
2017-04-14T03:19:47.628Z,0
2017-04-14T03:20:56.577Z,0
2017-04-14T03:22:05.575Z,0
2017-04-14T03:23:14.523Z,0
2017-04-14T03:24:23.731Z,0
2017-04-14T03:25:33.331Z,0
2017-04-14T03:26:42.289Z,0
2017-04-14T03:27:51.240Z,0
2017-04-14T03:29:00.194Z,0
2017-04-14T03:30:09.393Z,0
2017-04-14T03:31:18.343Z,0
2017-04-14T03:32:27.292Z,0
2017-04-14T03:33:36.266Z,0
2017-04-14T03:34:45.547Z,0
2017-04-14T03:35:54.755Z,0
2017-04-14T03:37:03.713Z,0
2017-04-14T03:38:12.663Z,0
2017-04-14T03:39:21.624Z,0
2017-04-14T03:40:30.577Z,0
2017-04-14T03:41:39.836Z,0
2017-04-14T03:42:49.111Z,0
2017-04-14T03:43:58.061Z,4
2017-04-14T03:45:07.007Z,4
2017-04-14T03:46:16.049Z,0
2017-04-14T03:47:25.291Z,4
2017-04-14T03:48:34.244Z,4
2017-04-14T03:49:43.198Z,4
2017-04-14T03:50:52.154Z,4
2017-04-14T03:52:01.110Z,4
2017-04-14T03:53:10.638Z,4
2017-04-14T03:54:19.595Z,8
2017-04-14T03:55:28.554Z,12
2017-04-14T03:56:37.508Z,12
2017-04-14T03:57:46.463Z,16
2017-04-14T03:58:55.670Z,16
2017-04-14T04:00:04.632Z,20
2017-04-14T04:01:13.578Z,24
2017-04-14T04:02:22.541Z,24
2017-04-14T04:03:31.498Z,28
2017-04-14T04:04:40.703Z,32
2017-04-14T04:05:49.655Z,36
2017-04-14T04:06:58.608Z,44
2017-04-14T04:08:07.559Z,44
2017-04-14T04:09:16.516Z,52
2017-04-14T04:10:25.718Z,60
2017-04-14T04:11:34.668Z,64
2017-04-14T04:12:43.623Z,72
2017-04-14T04:13:52.627Z,80
2017-04-14T04:15:01.584Z,88
2017-04-14T04:16:10.795Z,100
2017-04-14T04:17:19.744Z,116
2017-04-14T04:18:28.695Z,124
2017-04-14T04:19:37.646Z,124
2017-04-14T04:20:46.602Z,132
2017-04-14T04:21:55.934Z,124
2017-04-14T04:23:04.881Z,136
2017-04-14T04:24:13.838Z,140
2017-04-14T04:25:22.792Z,140
2017-04-14T04:26:31.743Z,128
2017-04-14T04:27:40.956Z,120
2017-04-14T04:28:49.910Z,164
2017-04-14T04:29:58.867Z,196
2017-04-14T04:31:07.824Z,200
2017-04-14T04:32:16.782Z,248
2017-04-14T04:33:25.988Z,256
2017-04-14T04:34:35.261Z,276
2017-04-14T04:35:44.214Z,288
2017-04-14T04:36:53.167Z,284
2017-04-14T04:38:02.488Z,244
2017-04-14T04:39:11.688Z,260
2017-04-14T04:40:21.049Z,232
2017-04-14T04:41:29.996Z,236
2017-04-14T04:42:38.945Z,292
2017-04-14T04:43:47.893Z,364
2017-04-14T04:44:57.103Z,424
2017-04-14T04:46:06.069Z,500
2017-04-14T04:47:15.343Z,456
2017-04-14T04:48:24.295Z,404
2017-04-14T04:49:33.249Z,360
2017-04-14T04:50:42.450Z,248
2017-04-14T04:51:51.399Z,292
2017-04-14T04:53:00.361Z,344
2017-04-14T04:54:09.410Z,400
2017-04-14T04:55:18.405Z,540
2017-04-14T04:56:27.607Z,492
2017-04-14T04:57:36.569Z,448
2017-04-14T04:58:45.522Z,484
2017-04-14T04:59:54.475Z,660
2017-04-14T05:01:03.427Z,600
2017-04-14T05:02:12.968Z,552
2017-04-14T05:03:21.918Z,548
2017-04-14T05:04:30.872Z,804
2017-04-14T05:05:39.821Z,672
2017-04-14T05:06:48.771Z,712
2017-04-14T05:07:57.974Z,1048
2017-04-14T05:09:06.922Z,976
2017-04-14T05:10:15.957Z,980
2017-04-14T05:11:24.917Z,700
2017-04-14T05:12:33.866Z,680
2017-04-14T05:13:43.072Z,744
2017-04-14T05:14:52.033Z,792
2017-04-14T05:16:00.994Z,1048
2017-04-14T05:17:09.946Z,1064
2017-04-14T05:18:18.907Z,1156
2017-04-14T05:19:28.110Z,1104
2017-04-14T05:20:37.152Z,1300
2017-04-14T05:21:46.104Z,1512
2017-04-14T05:22:55.063Z,1532
2017-04-14T05:24:04.028Z,1220
2017-04-14T05:25:13.236Z,1164
2017-04-14T05:26:22.190Z,1568
2017-04-14T05:27:31.139Z,2296
2017-04-14T05:28:40.090Z,1916
2017-04-14T05:29:49.041Z,1420
2017-04-14T05:30:58.242Z,1748
2017-04-14T05:32:07.198Z,1824
2017-04-14T05:33:16.149Z,2104
2017-04-14T05:34:25.099Z,1260
2017-04-14T05:35:34.137Z,2016
2017-04-14T05:36:43.348Z,2480
2017-04-14T05:37:52.298Z,1740
2017-04-14T05:39:01.247Z,1864
2017-04-14T05:40:10.206Z,1264
2017-04-14T05:41:19.164Z,1384
2017-04-14T05:42:28.504Z,1404
2017-04-14T05:43:37.457Z,1360
2017-04-14T05:44:46.409Z,2096
2017-04-14T05:45:55.365Z,1972
2017-04-14T05:47:04.319Z,1184
2017-04-14T05:48:13.850Z,1176
2017-04-14T05:49:22.806Z,1940
2017-04-14T05:50:31.756Z,1896
2017-04-14T05:51:40.718Z,1208
2017-04-14T05:52:49.676Z,1384
2017-04-14T05:53:58.883Z,1580
2017-04-14T05:55:07.831Z,2128
2017-04-14T05:56:17.100Z,1428
2017-04-14T05:57:26.054Z,1348
2017-04-14T05:58:35.006Z,1668
2017-04-14T05:59:44.267Z,1828
2017-04-14T06:00:53.220Z,1460
2017-04-14T06:02:02.169Z,2344
2017-04-14T06:03:11.126Z,1404
2017-04-14T06:04:20.076Z,1824
2017-04-14T06:05:29.283Z,1472
2017-04-14T06:06:38.240Z,3088
2017-04-14T06:07:47.287Z,2164
2017-04-14T06:08:56.243Z,2296
2017-04-14T06:10:05.289Z,2820
2017-04-14T06:11:14.496Z,2876
2017-04-14T06:12:23.442Z,1996
2017-04-14T06:13:32.485Z,2648
2017-04-14T06:14:41.438Z,2584
2017-04-14T06:15:50.480Z,2184
2017-04-14T06:16:59.688Z,2068
2017-04-14T06:18:08.734Z,1624
2017-04-14T06:19:17.691Z,3280
2017-04-14T06:20:26.646Z,1912
2017-04-14T06:21:35.598Z,1940
2017-04-14T06:22:44.803Z,1648
2017-04-14T06:23:53.761Z,1952
2017-04-14T06:25:02.721Z,2952
2017-04-14T06:26:11.685Z,1556
2017-04-14T06:27:20.635Z,1668
2017-04-14T06:28:29.847Z,2020
2017-04-14T06:29:38.802Z,2380
2017-04-14T06:30:47.747Z,2524
2017-04-14T06:31:56.700Z,3332
2017-04-14T06:33:05.655Z,1668
2017-04-14T06:34:14.856Z,1600
2017-04-14T06:35:23.805Z,2408
2017-04-14T06:36:33.082Z,2048
2017-04-14T06:37:42.033Z,2904
2017-04-14T06:38:51.079Z,2128
2017-04-14T06:40:00.372Z,2768
2017-04-14T06:41:09.323Z,3584
2017-04-14T06:42:18.275Z,2452
2017-04-14T06:43:27.572Z,3404
2017-04-14T06:44:36.530Z,3708
2017-04-14T06:45:45.734Z,3840
2017-04-14T06:46:54.686Z,2552
2017-04-14T06:48:03.641Z,5112
2017-04-14T06:49:12.690Z,3440
2017-04-14T06:50:21.652Z,2336
2017-04-14T06:51:30.853Z,2048
2017-04-14T06:52:39.816Z,3788
2017-04-14T06:53:48.765Z,2964
2017-04-14T06:54:57.718Z,4700
2017-04-14T06:56:06.673Z,2368
2017-04-14T06:57:15.875Z,1980
2017-04-14T06:58:24.827Z,3328
2017-04-14T06:59:33.780Z,3012
2017-04-14T07:00:42.816Z,2948
2017-04-14T07:01:51.766Z,2972
2017-04-14T07:03:00.982Z,3688
2017-04-14T07:04:09.937Z,3740
2017-04-14T07:05:18.895Z,4292
2017-04-14T07:06:27.859Z,5240
2017-04-14T07:07:36.815Z,5204
2017-04-14T07:08:46.029Z,4804
2017-04-14T07:09:54.984Z,5052
2017-04-14T07:11:03.934Z,5368
2017-04-14T07:12:13.220Z,5204
2017-04-14T07:13:22.270Z,4344
2017-04-14T07:14:31.475Z,4976
2017-04-14T07:15:40.604Z,5148
2017-04-14T07:16:49.566Z,5480
2017-04-14T07:17:58.526Z,5352
2017-04-14T07:19:07.477Z,5472
2017-04-14T07:20:16.683Z,5684
2017-04-14T07:21:25.637Z,4828
2017-04-14T07:22:34.605Z,5000
2017-04-14T07:23:43.646Z,5444
2017-04-14T07:24:52.604Z,5580
2017-04-14T07:26:01.807Z,5300
2017-04-14T07:27:10.775Z,4688
2017-04-14T07:28:19.731Z,4884
2017-04-14T07:29:29.015Z,4852
2017-04-14T07:30:37.974Z,5000
2017-04-14T07:31:47.177Z,4760
2017-04-14T07:32:56.145Z,5344
2017-04-14T07:34:05.101Z,3740
2017-04-14T07:35:14.055Z,5260
2017-04-14T07:36:23.414Z,4740
2017-04-14T07:37:32.718Z,5232
2017-04-14T07:38:41.676Z,3960
2017-04-14T07:39:50.629Z,4308
2017-04-14T07:40:59.584Z,6364
2017-04-14T07:42:08.886Z,4648
2017-04-14T07:43:18.093Z,4232
2017-04-14T07:44:27.046Z,4708
2017-04-14T07:45:36.321Z,5548
2017-04-14T07:46:45.364Z,4188
2017-04-14T07:47:54.329Z,4136
2017-04-14T07:49:03.536Z,4192
2017-04-14T07:50:12.533Z,4428
2017-04-14T07:51:21.490Z,4368
2017-04-14T07:52:30.450Z,4792
2017-04-14T07:53:39.410Z,4268
2017-04-14T07:54:48.608Z,4832
2017-04-14T07:55:57.651Z,5472
2017-04-14T07:57:06.608Z,6268
2017-04-14T07:58:15.562Z,4776
2017-04-14T07:59:24.523Z,6048
2017-04-14T08:00:33.734Z,5416
2017-04-14T08:01:42.689Z,4968
2017-04-14T08:02:51.734Z,5864
2017-04-14T08:04:00.689Z,5880
2017-04-14T08:05:09.642Z,2548
2017-04-14T08:06:18.938Z,4620
2017-04-14T08:07:27.897Z,4532
2017-04-14T08:08:36.852Z,5524
2017-04-14T08:09:45.802Z,5052
2017-04-14T08:10:54.760Z,4548
2017-04-14T08:12:03.975Z,5228
2017-04-14T08:13:13.030Z,5284
2017-04-14T08:14:21.992Z,5340
2017-04-14T08:15:30.941Z,5976
2017-04-14T08:16:39.897Z,5676
2017-04-14T08:17:49.105Z,6044
2017-04-14T08:18:58.072Z,6272
2017-04-14T08:20:07.026Z,5536
2017-04-14T08:21:15.983Z,5128
2017-04-14T08:22:24.939Z,3864
2017-04-14T08:23:34.139Z,5300
2017-04-14T08:24:43.102Z,4544
2017-04-14T08:25:52.050Z,4656
2017-04-14T08:27:01.013Z,6076
2017-04-14T08:28:10.054Z,6612
2017-04-14T08:29:19.348Z,7636
2017-04-14T08:30:28.399Z,6004
2017-04-14T08:31:37.439Z,5100
2017-04-14T08:32:46.484Z,5352
2017-04-14T08:33:55.447Z,3260
2017-04-14T08:35:04.663Z,4112
2017-04-14T08:36:13.979Z,5140
2017-04-14T08:37:22.935Z,4084
2017-04-14T08:38:31.944Z,4956
2017-04-14T08:39:40.964Z,4296
2017-04-14T08:40:50.172Z,3672
2017-04-14T08:41:59.132Z,4124
2017-04-14T08:43:08.094Z,6628
2017-04-14T08:44:17.042Z,4936
2017-04-14T08:45:25.995Z,4524
2017-04-14T08:46:35.200Z,6604
2017-04-14T08:47:44.157Z,4436
2017-04-14T08:48:53.122Z,6172
2017-04-14T08:50:02.407Z,6804
2017-04-14T08:51:11.454Z,6252
2017-04-14T08:52:20.661Z,7268
2017-04-14T08:53:29.619Z,7504
2017-04-14T08:54:38.578Z,8696
2017-04-14T08:55:47.535Z,8104
2017-04-14T08:56:56.488Z,7764
2017-04-14T08:58:05.698Z,5656
2017-04-14T08:59:14.666Z,6032
2017-04-14T09:00:23.624Z,6076
2017-04-14T09:01:32.583Z,7184
2017-04-14T09:02:41.536Z,7272
2017-04-14T09:03:50.750Z,8196
2017-04-14T09:04:59.710Z,6788
2017-04-14T09:06:09.001Z,6360
2017-04-14T09:07:17.968Z,4808
2017-04-14T09:08:27.012Z,3296
2017-04-14T09:09:36.218Z,3012
2017-04-14T09:10:45.177Z,4308
2017-04-14T09:11:54.132Z,4440
2017-04-14T09:13:03.086Z,3852
2017-04-14T09:14:12.192Z,3772
2017-04-14T09:15:21.455Z,4184
2017-04-14T09:16:30.417Z,5712
2017-04-14T09:17:39.373Z,4752
2017-04-14T09:18:48.335Z,3568
2017-04-14T09:19:57.299Z,3192
2017-04-14T09:21:06.506Z,4904
2017-04-14T09:22:15.548Z,4912
2017-04-14T09:23:24.505Z,4080
2017-04-14T09:24:33.472Z,3168
2017-04-14T09:25:42.763Z,4120
2017-04-14T09:26:51.986Z,4944
2017-04-14T09:28:01.112Z,5020
2017-04-14T09:29:10.068Z,5812
2017-04-14T09:30:19.030Z,4344
2017-04-14T09:31:27.984Z,2928
2017-04-14T09:32:37.191Z,2992
2017-04-14T09:33:46.163Z,2848
2017-04-14T09:34:55.126Z,2944
2017-04-14T09:36:04.084Z,3044
2017-04-14T09:37:13.039Z,3240
2017-04-14T09:38:22.250Z,3424
2017-04-14T09:39:31.202Z,3584
2017-04-14T09:40:40.152Z,3512
2017-04-14T09:41:49.201Z,3496
2017-04-14T09:42:58.155Z,3444
2017-04-14T09:44:07.361Z,3216
2017-04-14T09:45:16.325Z,3284
2017-04-14T09:46:25.283Z,3396
2017-04-14T09:47:34.239Z,3828
2017-04-14T09:48:43.203Z,3540
2017-04-14T09:49:52.414Z,3520
2017-04-14T09:51:01.372Z,3608
2017-04-14T09:52:10.325Z,3932
2017-04-14T09:53:19.287Z,4176
2017-04-14T09:54:28.246Z,4256
2017-04-14T09:55:37.451Z,4348
2017-04-14T09:56:46.421Z,4820
2017-04-14T09:57:55.377Z,5796
2017-04-14T09:59:04.425Z,6288
2017-04-14T10:00:13.383Z,6788
2017-04-14T10:01:22.643Z,6732
2017-04-14T10:02:31.689Z,6480
2017-04-14T10:03:40.646Z,5392
2017-04-14T10:04:49.602Z,5516
2017-04-14T10:05:58.557Z,5468
2017-04-14T10:07:07.776Z,6416
2017-04-14T10:08:16.742Z,6304
2017-04-14T10:09:25.698Z,6052
2017-04-14T10:10:34.660Z,6424
2017-04-14T10:11:43.616Z,7328
2017-04-14T10:12:52.823Z,7876
2017-04-14T10:14:01.789Z,7536
2017-04-14T10:15:10.762Z,6268
2017-04-14T10:16:19.719Z,4176
2017-04-14T10:17:28.776Z,5188
2017-04-14T10:18:38.309Z,4608
2017-04-14T10:19:47.270Z,4568
2017-04-14T10:20:56.549Z,4536
2017-04-14T10:22:05.513Z,4620
2017-04-14T10:23:14.470Z,5800
2017-04-14T10:24:23.678Z,7376
2017-04-14T10:25:32.640Z,7340
2017-04-14T10:26:41.594Z,7316
2017-04-14T10:27:50.554Z,7376
2017-04-14T10:28:59.518Z,7268
2017-04-14T10:30:08.728Z,7152
2017-04-14T10:31:17.688Z,7196
2017-04-14T10:32:26.731Z,7556
2017-04-14T10:33:36.013Z,8372
2017-04-14T10:34:45.109Z,7304
2017-04-14T10:35:54.323Z,6924
2017-04-14T10:37:03.277Z,6356
2017-04-14T10:38:12.320Z,6624
2017-04-14T10:39:21.288Z,6756
2017-04-14T10:40:30.252Z,7768
2017-04-14T10:41:39.875Z,7848
2017-04-14T10:42:48.835Z,7184
2017-04-14T10:43:57.799Z,5268
2017-04-14T10:45:06.759Z,5164
2017-04-14T10:46:16.041Z,5308
2017-04-14T10:47:25.257Z,5580
2017-04-14T10:48:34.219Z,6100
2017-04-14T10:49:43.177Z,6056
2017-04-14T10:50:52.139Z,6200
2017-04-14T10:52:01.100Z,6792
2017-04-14T10:53:10.310Z,7184
2017-04-14T10:54:19.270Z,7404
2017-04-14T10:55:28.230Z,7252
2017-04-14T10:56:37.186Z,7256
2017-04-14T10:57:46.143Z,7088
2017-04-14T10:58:55.366Z,6996
2017-04-14T11:00:04.328Z,6936
2017-04-14T11:01:13.289Z,6328
2017-04-14T11:02:22.290Z,5296
2017-04-14T11:03:31.249Z,4636
2017-04-14T11:04:40.461Z,4884
2017-04-14T11:05:49.419Z,5400
2017-04-14T11:06:58.377Z,5092
2017-04-14T11:08:07.431Z,5656
2017-04-14T11:09:16.396Z,5716
2017-04-14T11:10:25.607Z,5488
2017-04-14T11:11:34.566Z,5404
2017-04-14T11:12:43.529Z,5720
2017-04-14T11:13:52.497Z,5404
2017-04-14T11:15:01.457Z,5220
2017-04-14T11:16:10.675Z,5416
2017-04-14T11:17:19.724Z,5548
2017-04-14T11:18:28.766Z,5712
2017-04-14T11:19:37.811Z,5628
2017-04-14T11:20:46.774Z,5680
2017-04-14T11:21:55.980Z,5136
2017-04-14T11:23:04.942Z,5216
2017-04-14T11:24:13.996Z,5708
2017-04-14T11:25:22.960Z,4952
2017-04-14T11:26:31.920Z,4644
2017-04-14T11:27:41.217Z,5200
2017-04-14T11:28:50.183Z,5384
2017-04-14T11:29:59.464Z,5564
2017-04-14T11:31:08.431Z,5816
2017-04-14T11:32:17.385Z,5900
2017-04-14T11:33:26.604Z,5948
2017-04-14T11:34:35.559Z,5660
2017-04-14T11:35:44.516Z,4992
2017-04-14T11:36:53.471Z,5072
2017-04-14T11:38:02.427Z,5668
2017-04-14T11:39:11.723Z,6136
2017-04-14T11:40:20.684Z,6292
2017-04-14T11:41:29.641Z,6400
2017-04-14T11:42:38.602Z,6496
2017-04-14T11:43:47.901Z,6324
2017-04-14T11:44:59.185Z,5324
2017-04-14T11:46:10.214Z,5132
2017-04-14T11:47:19.183Z,5376
2017-04-14T11:48:28.151Z,5732
2017-04-14T11:49:37.197Z,5412
2017-04-14T11:50:46.491Z,5196
2017-04-14T11:51:55.449Z,5096
2017-04-14T11:53:05.127Z,5780
2017-04-14T11:54:14.102Z,5752
2017-04-14T11:55:23.059Z,5236
2017-04-14T11:56:32.352Z,5032
2017-04-14T11:57:41.314Z,5304
2017-04-14T11:58:50.275Z,5632
2017-04-14T11:59:59.231Z,5080
2017-04-14T12:01:08.196Z,5084
2017-04-14T12:02:17.417Z,4968
2017-04-14T12:03:26.700Z,5324
2017-04-14T12:04:35.667Z,5928
2017-04-14T12:05:44.631Z,6104
2017-04-14T12:06:53.588Z,5804
2017-04-14T12:08:03.142Z,5396
2017-04-14T12:09:12.110Z,4928
2017-04-14T12:10:21.072Z,3436
2017-04-14T12:11:30.032Z,2792
2017-04-14T12:12:38.994Z,4236
2017-04-14T12:13:48.204Z,4596
2017-04-14T12:14:57.168Z,4624
2017-04-14T12:16:06.132Z,4448
2017-04-14T12:17:15.095Z,3692
2017-04-14T12:18:24.063Z,2672
2017-04-14T12:19:33.278Z,1620
2017-04-14T12:20:42.238Z,1076
2017-04-14T12:21:51.194Z,1048
2017-04-14T12:23:00.177Z,1084
2017-04-14T12:24:09.143Z,1136
2017-04-14T12:25:19.102Z,1240
2017-04-14T12:26:28.064Z,1500
2017-04-14T12:27:37.034Z,1664
2017-04-14T12:28:45.999Z,2096
2017-04-14T12:29:54.959Z,3056
2017-04-14T12:31:04.160Z,4500
2017-04-14T12:32:13.122Z,5432
2017-04-14T12:33:22.079Z,5304
2017-04-14T12:34:31.043Z,5080
2017-04-14T12:35:40.008Z,4444
2017-04-14T12:36:49.226Z,3956
2017-04-14T12:37:58.198Z,3592
2017-04-14T12:39:07.157Z,3456
2017-04-14T12:40:16.113Z,3704
2017-04-14T12:41:25.073Z,4364
2017-04-14T12:42:34.281Z,3904
2017-04-14T12:43:43.243Z,3264
2017-04-14T12:44:52.201Z,3028
2017-04-14T12:46:01.169Z,3228
2017-04-14T12:47:10.132Z,4212
2017-04-14T12:48:19.342Z,4924
2017-04-14T12:49:28.312Z,4516
2017-04-14T12:50:37.593Z,4224
2017-04-14T12:51:46.554Z,4024
2017-04-14T12:52:55.514Z,3996
2017-04-14T12:54:04.726Z,3700
2017-04-14T12:55:13.682Z,3584
2017-04-14T12:56:22.638Z,2888
2017-04-14T12:57:31.602Z,2584
2017-04-14T12:58:40.572Z,2260
2017-04-14T12:59:49.786Z,1856
2017-04-14T13:00:58.746Z,1640
2017-04-14T13:02:07.704Z,1436
2017-04-14T13:03:16.669Z,1124
2017-04-14T13:04:25.641Z,1008
2017-04-14T13:05:34.852Z,1084
2017-04-14T13:06:43.816Z,1000
2017-04-14T13:07:52.777Z,1000
2017-04-14T13:09:01.851Z,1000
2017-04-14T13:10:10.826Z,796
2017-04-14T13:11:20.363Z,740
2017-04-14T13:12:29.321Z,892
2017-04-14T13:13:38.289Z,964
2017-04-14T13:14:47.247Z,1252
2017-04-14T13:15:56.210Z,1460
2017-04-14T13:17:05.417Z,1544
2017-04-14T13:18:14.468Z,1428
2017-04-14T13:19:23.428Z,1040
2017-04-14T13:20:32.397Z,860
2017-04-14T13:21:41.353Z,692
2017-04-14T13:22:50.565Z,672
2017-04-14T13:23:59.530Z,740
2017-04-14T13:25:08.571Z,908
2017-04-14T13:26:17.536Z,1160
2017-04-14T13:27:26.496Z,1084
2017-04-14T13:28:35.754Z,1288
2017-04-14T13:29:44.720Z,1700
2017-04-14T13:30:54.416Z,2180
2017-04-14T13:32:03.372Z,3348
2017-04-14T13:33:12.328Z,4216
2017-04-14T13:34:21.537Z,4044
2017-04-14T13:35:30.585Z,3260
2017-04-14T13:36:39.869Z,2512
2017-04-14T13:37:48.962Z,2096
2017-04-14T13:38:57.921Z,2084
2017-04-14T13:40:07.128Z,2228
2017-04-14T13:41:16.173Z,2124
2017-04-14T13:42:25.134Z,2456
2017-04-14T13:43:34.090Z,1944
2017-04-14T13:44:43.231Z,1712
2017-04-14T13:45:52.774Z,1628
2017-04-14T13:47:01.733Z,3032
2017-04-14T13:48:10.690Z,3960
2017-04-14T13:49:19.654Z,3736
2017-04-14T13:50:28.609Z,4396
2017-04-14T13:51:37.824Z,3804
2017-04-14T13:52:46.876Z,2592
2017-04-14T13:53:55.832Z,2052
2017-04-14T13:55:04.803Z,2384
2017-04-14T13:56:13.778Z,2736
2017-04-14T13:57:22.990Z,2716
2017-04-14T13:58:32.036Z,2728
2017-04-14T13:59:41.218Z,2544
2017-04-14T14:00:50.177Z,2240
2017-04-14T14:01:59.130Z,2292
2017-04-14T14:03:08.756Z,2412
2017-04-14T14:04:17.725Z,2596
2017-04-14T14:05:26.683Z,1996
2017-04-14T14:06:35.642Z,1724
2017-04-14T14:07:44.605Z,2164
2017-04-14T14:08:53.814Z,2644
2017-04-14T14:10:03.097Z,2976
2017-04-14T14:11:12.058Z,2844
2017-04-14T14:12:21.101Z,2972
2017-04-14T14:13:30.062Z,2960
2017-04-14T14:14:39.266Z,3968
2017-04-14T14:15:48.222Z,3980
2017-04-14T14:16:57.180Z,3212
2017-04-14T14:18:06.463Z,2236
2017-04-14T14:19:15.437Z,1928
2017-04-14T14:20:24.649Z,1852
2017-04-14T14:21:33.607Z,1928
2017-04-14T14:22:42.573Z,1428
2017-04-14T14:23:51.534Z,1560
2017-04-14T14:25:00.495Z,1896
2017-04-14T14:26:09.703Z,2776
2017-04-14T14:27:18.664Z,3108
2017-04-14T14:28:27.711Z,3412
2017-04-14T14:29:36.664Z,3480
2017-04-14T14:30:45.633Z,3080
2017-04-14T14:31:54.934Z,2452
2017-04-14T14:33:03.890Z,2064
2017-04-14T14:34:13.180Z,1872
2017-04-14T14:35:22.139Z,1824
2017-04-14T14:36:31.094Z,1180
2017-04-14T14:37:40.429Z,1524
2017-04-14T14:38:49.391Z,1940
2017-04-14T14:39:58.348Z,2592
2017-04-14T14:41:07.631Z,3412
2017-04-14T14:42:16.591Z,3152
2017-04-14T14:43:25.803Z,2484
2017-04-14T14:44:34.770Z,2216
2017-04-14T14:45:43.737Z,2200
2017-04-14T14:46:52.697Z,2176
2017-04-14T14:48:01.659Z,2060
2017-04-14T14:49:10.873Z,2100
2017-04-14T14:50:19.838Z,2064
2017-04-14T14:51:28.793Z,1476
2017-04-14T14:52:37.751Z,1340
2017-04-14T14:53:46.715Z,1256
2017-04-14T14:54:55.931Z,1056
2017-04-14T14:56:04.889Z,1048
2017-04-14T14:57:13.938Z,1156
2017-04-14T14:58:22.950Z,1324
2017-04-14T14:59:31.909Z,1428
2017-04-14T15:00:41.120Z,1360
2017-04-14T15:01:50.085Z,1184
2017-04-14T15:02:59.046Z,1472
2017-04-14T15:04:08.001Z,1696
2017-04-14T15:05:16.960Z,1952
2017-04-14T15:06:26.168Z,2088
2017-04-14T15:07:35.125Z,2036
2017-04-14T15:08:44.091Z,2048
2017-04-14T15:09:53.054Z,2216
2017-04-14T15:11:02.012Z,2216
2017-04-14T15:12:11.221Z,2136
2017-04-14T15:13:20.181Z,1876
2017-04-14T15:14:29.154Z,1220
2017-04-14T15:15:38.108Z,856
2017-04-14T15:16:47.154Z,844
2017-04-14T15:17:56.363Z,964
2017-04-14T15:19:05.410Z,1108
2017-04-14T15:20:14.368Z,1228
2017-04-14T15:21:23.329Z,1556
2017-04-14T15:22:32.286Z,1668
2017-04-14T15:23:41.497Z,1700
2017-04-14T15:24:50.461Z,1868
2017-04-14T15:25:59.438Z,1740
2017-04-14T15:27:08.400Z,1552
2017-04-14T15:28:17.368Z,1476
2017-04-14T15:29:26.581Z,1404
2017-04-14T15:30:35.533Z,1276
2017-04-14T15:31:44.491Z,1200
2017-04-14T15:32:53.453Z,1480
2017-04-14T15:34:02.414Z,1660
2017-04-14T15:35:11.625Z,1820
2017-04-14T15:36:20.583Z,1948
2017-04-14T15:37:29.543Z,2152
2017-04-14T15:38:38.507Z,2256
2017-04-14T15:39:47.465Z,2192
2017-04-14T15:40:56.760Z,2104
2017-04-14T15:42:05.734Z,2064
2017-04-14T15:43:14.688Z,2052
2017-04-14T15:44:23.647Z,2068
2017-04-14T15:45:32.606Z,2148
2017-04-14T15:46:41.815Z,2140